Time;durP1;ratioP1;P1;durP2;ratioP2;P2;SDS_P1;SDS_P2;PMS_P1;PMS_P2;Temp;Humidity;BMP_temperature;BMP_pressure;BME280_temperature;BME280_humidity;BME280_pressure;Samples;Min_cycle;Max_cycle;Signal;HPM_P1;HPM_P2
2021/03/31 00:02:00;;;;;;;6.73;6.17;;;8.10;99.90;;;8.98;62.79;98898.91;5256196;28;20314;-82
2021/03/31 00:04:32;;;;;;;6.60;6.10;;;8.10;99.90;;;8.90;63.08;98899.97;5253297;28;20287;-82
2021/03/31 00:07:07;;;;;;;6.23;5.60;;;8.00;99.90;;;8.86;63.07;98902.16;5256680;28;20213;-82
2021/03/31 00:09:40;;;;;;;6.97;6.37;;;7.90;99.90;;;8.84;63.15;98898.56;5267025;28;20197;-82
2021/03/31 00:12:13;;;;;;;7.03;6.33;;;7.90;99.90;;;8.85;63.29;98897.81;5257907;28;20283;-82
2021/03/31 00:14:45;;;;;;;6.60;6.00;;;7.80;99.90;;;8.78;63.20;98898.97;5250495;28;20201;-82
2021/03/31 00:17:17;;;;;;;6.60;6.00;;;7.80;99.90;;;8.74;63.86;98894.41;5251905;28;20223;-81
2021/03/31 00:19:49;;;;;;;6.87;6.27;;;7.70;99.90;;;8.75;63.82;98898.72;5251373;28;20251;-82
2021/03/31 00:22:21;;;;;;;6.60;6.00;;;7.70;99.90;;;8.72;63.85;98898.47;5268312;28;20237;-81
2021/03/31 00:24:53;;;;;;;7.17;6.47;;;7.70;99.90;;;8.68;63.92;98892.25;5262970;28;20224;-82
2021/03/31 00:27:26;;;;;;;6.80;6.23;;;7.70;99.90;;;8.67;64.23;98895.56;5261441;28;20216;-82
2021/03/31 00:29:58;;;;;;;6.37;5.87;;;7.70;99.90;;;8.62;64.43;98888.31;5254145;28;20246;-82
2021/03/31 00:32:30;;;;;;;6.57;5.87;;;7.60;99.90;;;8.57;64.37;98886.28;5260269;28;20196;-81
2021/03/31 00:35:03;;;;;;;6.17;5.67;;;7.50;99.90;;;8.50;64.62;98886.56;5254565;28;20221;-82
2021/03/31 00:37:35;;;;;;;7.33;6.73;;;7.40;99.90;;;8.39;64.10;98886.44;5256487;28;20254;-82
2021/03/31 00:40:12;;;;;;;6.87;6.07;;;7.30;99.90;;;8.40;64.40;98898.41;5258901;28;20284;-82
2021/03/31 00:42:46;;;;;;;6.77;6.10;;;7.30;99.90;;;8.27;64.43;98891.38;5250167;28;20740;-81
2021/03/31 00:45:18;;;;;;;6.53;5.90;;;7.20;99.90;;;8.20;64.81;98889.09;5249837;28;20204;-82
2021/03/31 00:47:51;;;;;;;8.23;6.87;;;7.20;99.90;;;8.13;65.00;98893.69;5250009;28;20217;-81
2021/03/31 00:50:23;;;;;;;7.57;6.87;;;7.20;99.90;;;8.11;65.09;98881.59;5268876;28;20230;-82
2021/03/31 00:52:58;;;;;;;7.23;6.10;;;7.20;99.90;;;8.12;65.38;98883.34;5270679;28;20356;-82
2021/03/31 00:55:31;;;;;;;8.60;6.90;;;7.20;99.90;;;8.16;65.17;98881.97;5264334;28;20298;-82
2021/03/31 00:58:04;;;;;;;7.83;7.10;;;7.20;99.90;;;8.14;65.23;98879.28;5262682;28;20232;-81
2021/03/31 01:00:36;;;;;;;7.90;7.20;;;7.20;99.90;;;8.13;65.79;98878.41;5268370;28;20318;-81
2021/03/31 01:03:09;;;;;;;8.57;7.67;;;7.30;99.90;;;8.18;65.17;98871.13;5249718;28;20246;-82
2021/03/31 01:05:42;;;;;;;8.57;7.77;;;7.40;99.90;;;8.17;65.58;98874.44;5265548;28;20228;-82
2021/03/31 01:08:14;;;;;;;8.00;7.30;;;7.30;99.90;;;8.20;65.25;98879.78;5267199;28;20239;-81
2021/03/31 01:10:49;;;;;;;8.73;7.50;;;7.40;99.90;;;8.23;65.44;98874.06;5259135;28;20370;-81
2021/03/31 01:13:45;;;;;;;10.43;7.73;;;7.40;99.90;;;8.15;65.08;98870.00;5249247;28;20287;-83
2021/03/31 01:16:28;;;;;;;8.27;7.57;;;7.40;99.90;;;8.21;65.08;98870.50;5262943;28;20206;-83
2021/03/31 01:19:09;;;;;;;8.40;7.60;;;7.40;99.90;;;8.20;65.24;98866.19;5253161;28;20311;-82
2021/03/31 01:22:31;;;;;;;7.77;6.57;;;7.40;99.90;;;8.15;64.78;98859.81;5250721;28;20199;-82
2021/03/31 01:25:30;;;;;;;7.40;6.73;;;7.30;99.90;;;8.08;65.28;98869.50;5252283;28;20247;-82
2021/03/31 01:28:46;;;;;;;7.93;6.87;;;7.20;99.90;;;8.04;65.44;98870.00;5268510;28;20555;-82
2021/03/31 01:31:34;;;;;;;8.10;7.23;;;7.10;99.90;;;8.05;65.60;98864.16;5258852;28;20193;-82
2021/03/31 01:34:37;;;;;;;7.43;6.73;;;7.10;99.90;;;8.02;65.57;98863.00;5261522;28;20228;-82
2021/03/31 01:37:19;;;;;;;7.27;6.10;;;7.10;99.90;;;8.00;65.86;98855.22;5250432;28;20218;-82
2021/03/31 01:39:55;;;;;;;7.20;6.50;;;7.00;99.90;;;7.96;65.92;98855.75;5250175;28;20665;-83
2021/03/31 01:42:29;;;;;;;7.03;6.37;;;6.90;99.90;;;7.92;65.76;98853.69;5254929;28;20196;-83
2021/03/31 01:45:07;;;;;;;6.93;6.23;;;6.90;99.90;;;7.90;65.65;98845.06;5254907;28;20261;-83
2021/03/31 01:47:44;;;;;;;8.90;6.63;;;6.90;99.90;;;7.80;65.64;98839.97;5262473;28;20266;-82
2021/03/31 01:50:18;;;;;;;7.10;6.50;;;6.80;99.90;;;7.78;66.01;98836.38;5264107;28;20227;-83
2021/03/31 01:52:50;;;;;;;7.40;6.70;;;6.70;99.90;;;7.73;65.99;98837.69;5262917;28;20282;-82
2021/03/31 01:55:24;;;;;;;8.00;6.97;;;6.70;99.90;;;7.68;66.23;98844.91;5257425;28;20651;-82
2021/03/31 01:57:58;;;;;;;8.00;7.30;;;6.70;99.90;;;7.78;65.71;98833.84;5257898;28;20211;-81
2021/03/31 02:00:33;;;;;;;6.97;6.33;;;6.70;99.90;;;7.63;66.08;98839.44;5265157;28;20220;-82
2021/03/31 02:03:06;;;;;;;7.40;6.80;;;6.60;99.90;;;7.53;66.90;98833.47;5250292;28;20199;-82
2021/03/31 02:05:39;;;;;;;8.43;7.63;;;6.50;99.90;;;7.64;66.37;98833.59;5267700;28;20234;-82
2021/03/31 02:08:12;;;;;;;7.70;7.00;;;6.50;99.90;;;7.53;66.40;98839.44;5252164;28;20699;-82
2021/03/31 02:10:45;;;;;;;7.57;6.87;;;6.50;99.90;;;7.44;66.60;98834.47;5258685;28;20291;-82
2021/03/31 02:13:18;;;;;;;7.57;6.87;;;6.50;99.90;;;7.39;67.18;98829.75;5260579;28;20226;-81
2021/03/31 02:15:57;;;;;;;8.13;7.37;;;6.40;99.90;;;7.30;66.85;98826.44;5266627;28;20188;-82
2021/03/31 02:18:34;;;;;;;7.77;7.07;;;6.30;99.90;;;7.30;66.82;98821.34;5260304;28;20319;-81
2021/03/31 02:21:09;;;;;;;7.73;7.00;;;6.30;99.90;;;7.27;67.75;98814.34;5263931;28;20184;-81
2021/03/31 02:23:42;;;;;;;9.07;7.83;;;6.30;99.90;;;7.23;67.54;98822.44;5249792;28;20627;-82
2021/03/31 02:26:16;;;;;;;8.73;7.40;;;6.30;99.90;;;7.22;67.96;98824.09;5252817;28;20200;-81
2021/03/31 02:28:48;;;;;;;8.27;7.47;;;6.30;99.90;;;7.21;67.71;98822.34;5249265;28;20204;-80
2021/03/31 02:31:21;;;;;;;8.17;7.37;;;6.30;99.90;;;7.18;68.03;98814.44;5258776;28;20200;-80
2021/03/31 02:33:55;;;;;;;9.90;7.87;;;6.30;99.90;;;7.15;68.71;98814.19;5255654;28;20203;-80
2021/03/31 02:36:44;;;;;;;10.13;7.47;;;6.30;99.90;;;7.22;67.92;98815.59;5261058;28;20250;-81
2021/03/31 02:39:20;;;;;;;8.30;7.60;;;6.30;99.90;;;7.23;68.03;98812.28;5269476;28;20666;-80
2021/03/31 02:41:56;;;;;;;8.80;7.87;;;6.30;99.90;;;7.20;68.13;98812.00;5262232;28;20244;-80
2021/03/31 02:44:30;;;;;;;9.27;8.37;;;6.30;99.90;;;7.19;67.81;98800.97;5265691;28;20195;-81
2021/03/31 02:47:06;;;;;;;9.07;8.17;;;6.30;99.90;;;7.11;68.27;98801.94;5251189;28;20212;-81
2021/03/31 02:49:42;;;;;;;10.13;9.03;;;6.30;99.90;;;7.06;68.09;98797.22;5260129;28;20196;-80
2021/03/31 02:52:18;;;;;;;10.60;8.97;;;6.30;99.90;;;7.08;68.20;98806.78;5247663;28;20208;-81
2021/03/31 02:54:52;;;;;;;10.03;8.77;;;6.30;99.90;;;7.09;68.40;98803.47;5259917;28;20283;-80
2021/03/31 02:57:26;;;;;;;9.70;8.80;;;6.30;99.90;;;7.06;68.17;98803.19;5269135;28;20258;-80
2021/03/31 02:59:58;;;;;;;10.13;9.13;;;6.30;99.90;;;7.05;68.58;98795.47;5269618;28;20705;-81
2021/03/31 03:02:30;;;;;;;9.90;8.90;;;6.30;99.90;;;6.98;68.70;98794.03;5253468;28;20196;-81
2021/03/31 03:05:04;;;;;;;9.97;8.77;;;6.20;99.90;;;6.95;68.36;98789.59;5252130;28;20196;-80
2021/03/31 03:07:38;;;;;;;11.00;9.07;;;6.20;99.90;;;6.93;68.39;98795.31;5258353;28;20316;-81
2021/03/31 03:10:11;;;;;;;9.50;7.77;;;6.20;99.90;;;6.91;68.93;98801.91;5266179;28;20200;-82
2021/03/31 03:12:48;;;;;;;10.00;8.97;;;6.10;99.90;;;7.01;68.39;98789.25;5252205;28;20291;-82
2021/03/31 03:15:23;;;;;;;9.77;8.60;;;6.20;99.90;;;6.88;68.81;98792.34;5252297;28;20626;-82
2021/03/31 03:17:56;;;;;;;10.40;8.60;;;6.10;99.90;;;6.78;68.80;98794.84;5266832;28;20694;-82
2021/03/31 03:20:28;;;;;;;10.40;9.20;;;6.00;99.90;;;6.75;68.90;98792.03;5259260;28;20301;-83
2021/03/31 03:23:03;;;;;;;9.57;8.57;;;5.90;99.90;;;6.71;69.04;98784.94;5272800;28;20240;-83
2021/03/31 03:25:36;;;;;;;10.00;9.10;;;5.90;99.90;;;6.71;69.66;98785.81;5273005;28;20196;-83
2021/03/31 03:28:10;;;;;;;8.47;7.67;;;5.90;99.90;;;6.72;69.52;98785.06;5269530;28;20686;-84
2021/03/31 03:30:42;;;;;;;10.17;9.10;;;6.00;99.90;;;6.74;69.30;98778.44;5257715;28;20197;-83
2021/03/31 03:33:15;;;;;;;11.20;8.93;;;6.00;99.90;;;6.73;69.39;98771.59;5259094;28;20237;-82
2021/03/31 03:35:47;;;;;;;10.03;9.03;;;6.00;99.90;;;6.68;69.51;98775.38;5262207;28;20612;-81
2021/03/31 03:38:22;;;;;;;10.67;9.33;;;5.90;99.90;;;6.57;69.49;98773.56;5270940;28;20220;-80
2021/03/31 03:40:54;;;;;;;12.03;8.77;;;5.80;99.90;;;6.58;69.42;98771.91;5251263;28;20261;-81
2021/03/31 03:43:26;;;;;;;10.37;8.87;;;5.80;99.90;;;6.60;70.07;98773.81;5260947;28;20204;-81
2021/03/31 03:45:59;;;;;;;9.73;8.83;;;5.80;99.90;;;6.61;69.41;98764.56;5271799;28;20281;-80
2021/03/31 03:48:31;;;;;;;9.83;8.93;;;5.90;99.90;;;6.63;70.21;98774.09;5266263;28;20652;-81
2021/03/31 03:51:05;;;;;;;11.20;9.43;;;5.90;99.90;;;6.56;69.67;98771.78;5251240;28;20629;-80
2021/03/31 03:53:39;;;;;;;10.83;9.73;;;5.80;99.90;;;6.56;70.11;98770.91;5264217;28;20219;-81
2021/03/31 03:56:13;;;;;;;10.47;9.43;;;5.80;99.90;;;6.52;69.44;98773.19;5260967;28;20202;-81
2021/03/31 03:58:45;;;;;;;10.33;9.33;;;5.80;99.90;;;6.52;69.76;98774.81;5254229;28;20596;-82
2021/03/31 04:01:17;;;;;;;9.60;8.60;;;5.70;99.90;;;6.54;69.80;98773.28;5251506;28;20224;-81
2021/03/31 04:03:49;;;;;;;10.40;9.50;;;5.70;99.90;;;6.53;70.44;98776.59;5251066;28;20228;-82
2021/03/31 04:06:21;;;;;;;9.70;8.80;;;5.70;99.90;;;6.51;69.82;98780.66;5260314;28;20252;-82
2021/03/31 04:08:54;;;;;;;9.23;8.23;;;5.70;99.90;;;6.59;70.07;98781.34;5250589;28;20224;-82
2021/03/31 04:11:27;;;;;;;9.73;8.73;;;5.70;99.90;;;6.63;70.44;98781.72;5250133;28;20223;-81
2021/03/31 04:14:01;;;;;;;10.63;7.73;;;5.70;99.90;;;6.66;69.99;98786.16;5251352;28;20295;-82
2021/03/31 04:16:35;;;;;;;9.27;8.30;;;5.70;99.90;;;6.58;70.37;98780.44;5265762;28;20203;-81
2021/03/31 04:19:12;;;;;;;9.50;8.60;;;5.60;99.90;;;6.58;70.08;98780.44;5257466;28;20213;-82
2021/03/31 04:21:45;;;;;;;10.50;8.63;;;5.60;99.90;;;6.53;69.42;98787.66;5261834;28;20275;-82
2021/03/31 04:24:18;;;;;;;10.30;9.33;;;5.60;99.90;;;6.57;69.94;98791.34;5269697;28;20200;-83
2021/03/31 04:26:52;;;;;;;10.03;9.03;;;5.60;99.90;;;6.55;69.87;98780.16;5262707;28;20650;-82
2021/03/31 04:29:25;;;;;;;11.20;9.77;;;5.60;99.90;;;6.57;70.43;98781.19;5262221;28;20284;-81
2021/03/31 04:31:59;;;;;;;10.27;9.20;;;5.50;99.90;;;6.51;69.76;98788.28;5255091;28;20200;-81
2021/03/31 04:34:31;;;;;;;9.10;8.20;;;5.50;99.90;;;6.46;69.80;98789.50;5260791;28;20189;-83
2021/03/31 04:37:04;;;;;;;10.20;9.13;;;5.50;99.90;;;6.44;69.63;98791.94;5259573;28;20241;-79
2021/03/31 04:39:38;;;;;;;9.93;8.93;;;5.50;99.90;;;6.35;69.62;98785.13;5271503;28;20730;-81
2021/03/31 04:42:11;;;;;;;8.63;7.70;;;5.50;99.90;;;6.37;69.85;98781.09;5257314;28;20195;-81
2021/03/31 04:44:43;;;;;;;9.77;8.77;;;5.50;99.90;;;6.39;70.43;98784.66;5263201;28;20275;-82
2021/03/31 04:47:15;;;;;;;9.50;8.67;;;5.50;99.90;;;6.36;70.14;98786.94;5259901;28;20238;-82
2021/03/31 04:49:47;;;;;;;9.90;8.90;;;5.50;99.90;;;6.31;70.07;98779.78;5249283;28;20197;-81
2021/03/31 04:52:19;;;;;;;10.33;9.23;;;5.50;99.90;;;6.31;70.58;98782.31;5263024;28;20267;-81
2021/03/31 04:54:52;;;;;;;9.67;8.73;;;5.50;99.90;;;6.37;69.93;98789.59;5272204;28;20207;-81
2021/03/31 04:57:24;;;;;;;9.60;8.70;;;5.50;99.90;;;6.38;70.26;98785.41;5260328;28;20312;-82
2021/03/31 04:59:56;;;;;;;12.60;9.13;;;5.40;99.90;;;6.34;69.80;98793.50;5260182;28;20220;-80
2021/03/31 05:02:28;;;;;;;9.90;8.90;;;5.30;99.90;;;6.34;70.04;98793.50;5263068;28;20269;-81
2021/03/31 05:05:00;;;;;;;10.03;9.03;;;5.30;99.90;;;6.34;70.06;98794.41;5256642;28;20295;-79
2021/03/31 05:07:33;;;;;;;9.87;8.60;;;5.30;99.90;;;6.24;69.90;98791.81;5263314;28;20216;-80
2021/03/31 05:10:07;;;;;;;11.40;9.40;;;5.20;99.90;;;6.10;70.99;98798.19;5256925;28;20258;-82
2021/03/31 05:12:39;;;;;;;10.20;9.17;;;5.00;99.90;;;6.05;70.89;98799.44;5266199;28;20234;-81
2021/03/31 05:15:12;;;;;;;10.93;9.83;;;5.00;99.90;;;6.00;70.84;98805.72;5260292;28;20204;-81
2021/03/31 05:17:44;;;;;;;9.60;8.70;;;5.00;99.90;;;6.00;71.25;98795.59;5264692;28;20224;-78
2021/03/31 05:20:16;;;;;;;9.67;8.77;;;4.90;99.90;;;6.01;71.39;98797.34;5258464;28;20311;-79
2021/03/31 05:22:49;;;;;;;10.10;9.10;;;4.90;99.90;;;6.01;70.81;98797.34;5252657;28;20279;-80
2021/03/31 05:25:22;;;;;;;10.43;9.43;;;4.90;99.90;;;5.94;71.08;98800.09;5266377;28;20649;-79
2021/03/31 05:27:58;;;;;;;9.53;8.03;;;4.90;99.90;;;5.95;71.56;98801.88;5269744;28;20226;-81
2021/03/31 05:30:30;;;;;;;10.07;9.07;;;5.00;99.90;;;6.09;71.82;98797.31;5258937;28;20610;-82
2021/03/31 05:33:03;;;;;;;10.53;9.43;;;5.10;99.90;;;6.11;71.17;98794.00;5255408;28;20298;-82
2021/03/31 05:35:35;;;;;;;9.60;8.60;;;5.20;99.90;;;6.13;71.49;98797.59;5264426;28;20243;-81
2021/03/31 05:38:08;;;;;;;10.20;9.20;;;5.20;99.90;;;6.21;71.19;98794.97;5255047;28;20217;-81
2021/03/31 05:40:43;;;;;;;11.53;9.20;;;5.30;99.90;;;6.35;71.25;98790.22;5260795;28;20279;-79
2021/03/31 05:43:16;;;;;;;9.07;8.27;;;5.40;99.90;;;6.39;70.16;98787.19;5269683;28;20731;-83
2021/03/31 05:45:48;;;;;;;9.57;8.63;;;5.50;99.90;;;6.46;70.77;98779.34;5265781;28;20307;-82
2021/03/31 05:48:21;;;;;;;11.00;9.73;;;5.60;99.90;;;6.57;70.08;98786.25;5252350;28;20216;-80
2021/03/31 05:50:53;;;;;;;10.47;9.13;;;5.60;99.90;;;6.60;70.06;98778.91;5260395;28;20278;-79
2021/03/31 05:53:25;;;;;;;10.60;9.33;;;5.60;99.90;;;6.73;69.61;98785.97;5260505;28;20281;-79
2021/03/31 05:55:58;;;;;;;9.83;8.63;;;5.60;99.90;;;7.01;69.34;98786.69;5255208;28;20913;-81
2021/03/31 05:58:31;;;;;;;9.73;8.77;;;5.80;99.90;;;7.34;68.18;98785.22;5251246;28;20298;-81
2021/03/31 06:01:04;;;;;;;10.23;8.17;;;6.00;99.90;;;7.79;67.12;98778.00;5254208;28;20196;-81
2021/03/31 06:03:36;;;;;;;10.07;9.13;;;6.30;99.90;;;8.24;65.39;98784.16;5258972;28;20207;-82
2021/03/31 06:06:10;;;;;;;9.77;8.77;;;6.70;99.90;;;8.65;63.98;98779.00;5255179;28;20722;-82
2021/03/31 06:08:42;;;;;;;9.77;8.77;;;6.90;99.90;;;9.09;62.14;98779.03;5267088;28;20218;-82
2021/03/31 06:11:16;;;;;;;11.53;9.43;;;7.30;99.90;;;9.04;61.53;98778.66;5259835;28;20216;-82
2021/03/31 06:13:51;;;;;;;12.97;9.60;;;7.40;99.90;;;9.01;62.25;98784.44;5269787;28;20263;-82
2021/03/31 06:16:31;;;;;;;9.77;8.63;;;7.40;99.90;;;9.07;61.29;98775.47;5252258;28;20215;-81
2021/03/31 06:19:17;;;;;;;10.60;8.20;;;7.60;99.90;;;9.17;61.09;98770.31;5247682;28;20594;-81
2021/03/31 06:21:59;;;;;;;9.33;8.43;;;7.70;99.90;;;9.25;60.76;98771.78;5249264;28;20525;-82
2021/03/31 06:24:34;;;;;;;8.93;8.03;;;7.90;99.90;;;9.32;61.12;98768.91;5251774;28;20250;-82
2021/03/31 06:27:10;;;;;;;12.63;9.00;;;8.00;99.90;;;9.60;59.55;98771.03;5250747;28;20223;-81
2021/03/31 06:29:44;;;;;;;9.73;8.60;;;8.00;99.90;;;10.38;57.58;98764.94;5253376;28;20272;-81
2021/03/31 06:32:18;;;;;;;9.40;8.50;;;8.60;99.90;;;10.53;57.35;98766.81;5255718;28;20196;-81
2021/03/31 06:34:56;;;;;;;10.10;9.13;;;8.80;99.90;;;10.63;56.62;98770.94;5265460;28;20230;-82
2021/03/31 06:37:32;;;;;;;9.37;8.40;;;8.60;99.90;;;11.09;55.63;98769.06;5261163;28;20256;-81
2021/03/31 06:40:07;;;;;;;9.37;8.43;;;9.00;99.90;;;11.33;54.66;98770.78;5264786;28;20307;-81
2021/03/31 06:42:44;;;;;;;10.73;8.57;;;9.30;99.90;;;11.60;54.49;98764.06;5260494;28;20248;-81
2021/03/31 06:45:18;;;;;;;10.10;9.10;;;9.40;99.90;;;11.93;53.44;98759.44;5269858;28;20453;-82
2021/03/31 06:47:55;;;;;;;11.07;9.60;;;9.70;99.90;;;12.14;52.89;98758.31;5270411;28;20246;-82
2021/03/31 06:50:29;;;;;;;10.73;8.93;;;10.10;99.60;;;12.36;52.25;98749.44;5253007;28;20717;-81
2021/03/31 06:53:06;;;;;;;11.10;9.77;;;10.40;98.80;;;12.53;51.08;98750.50;5266358;28;20214;-81
2021/03/31 06:55:39;;;;;;;10.38;8.95;;;10.40;98.40;;;12.80;50.89;98744.56;5254555;28;20615;-81
2021/03/31 06:58:12;;;;;;;11.77;9.00;;;10.70;98.40;;;13.17;49.57;98733.13;5271109;28;20246;-82
2021/03/31 07:00:44;;;;;;;10.80;9.70;;;10.80;97.90;;;13.31;49.34;98732.31;5260325;28;20215;-84
2021/03/31 07:03:18;;;;;;;9.85;8.85;;;10.80;98.10;;;14.00;47.68;98736.38;5263580;28;20291;-80
2021/03/31 07:05:50;;;;;;;10.18;9.18;;;11.40;97.50;;;14.45;47.69;98731.19;5252892;28;20189;-82
2021/03/31 07:08:22;;;;;;;10.85;9.75;;;11.70;97.10;;;15.19;45.95;98726.69;5260003;28;20213;-82
2021/03/31 07:10:56;;;;;;;10.85;9.70;;;12.30;96.20;;;15.74;44.12;98724.44;5263486;28;20185;-83
2021/03/31 07:13:30;;;;;;;9.48;8.50;;;12.70;95.40;;;16.28;43.62;98721.03;5257290;28;20200;-83
2021/03/31 07:16:05;;;;;;;10.35;8.95;;;13.10;95.10;;;16.66;42.66;98723.75;5270261;28;20227;-83
2021/03/31 07:18:38;;;;;;;9.85;8.82;;;13.40;94.10;;;16.78;42.04;98715.72;5269676;28;20224;-82
2021/03/31 07:21:12;;;;;;;9.93;8.80;;;13.80;93.50;;;16.74;42.08;98715.47;5269558;28;20231;-82
2021/03/31 07:23:47;;;;;;;9.52;8.52;;;14.10;92.70;;;16.37;42.31;98721.50;5255481;28;20225;-84
2021/03/31 07:26:20;;;;;;;9.75;8.27;;;14.00;92.00;;;16.35;42.21;98724.00;5261046;28;20295;-84
2021/03/31 07:28:53;;;;;;;10.63;8.70;;;14.20;91.70;;;16.33;42.49;98711.84;5270631;28;20243;-84
2021/03/31 07:31:28;;;;;;;9.77;8.75;;;14.10;91.90;;;16.60;41.64;98713.16;5261115;28;20201;-82
2021/03/31 07:34:17;;;;;;;12.02;9.10;;;14.50;91.30;;;16.75;41.45;98709.53;5247957;28;20229;-82
2021/03/31 07:36:50;;;;;;;10.32;9.30;;;14.70;91.40;;;16.77;41.89;98718.22;5253306;28;20212;-84
2021/03/31 07:39:27;;;;;;;9.70;8.73;;;14.70;91.10;;;16.84;41.99;98712.56;5269811;28;20894;-82
2021/03/31 07:42:00;;;;;;;9.80;8.77;;;14.70;90.90;;;16.91;41.71;98714.59;5270513;28;20286;-84
2021/03/31 07:44:35;;;;;;;11.65;10.27;;;14.80;90.50;;;16.91;40.94;98714.59;5263552;28;20197;-83
2021/03/31 07:47:08;;;;;;;11.23;10.02;;;14.80;90.40;;;16.87;41.52;98718.72;5247160;28;20301;-82
2021/03/31 07:49:41;;;;;;;11.70;10.25;;;14.90;90.20;;;16.88;41.34;98715.34;5248283;28;20329;-83
2021/03/31 07:52:13;;;;;;;12.02;10.77;;;14.90;90.20;;;16.96;41.36;98709.66;5261619;28;20199;-82
2021/03/31 07:54:45;;;;;;;11.48;10.27;;;15.10;90.10;;;16.89;41.56;98706.78;5248236;28;20199;-82
2021/03/31 07:57:26;;;;;;;12.85;10.88;;;15.00;90.70;;;16.77;42.12;98706.22;5268376;28;20222;-82
2021/03/31 07:59:59;;;;;;;11.40;10.23;;;15.00;90.50;;;16.86;42.31;98708.34;5267327;28;20249;-82
2021/03/31 08:02:31;;;;;;;12.55;10.98;;;15.20;90.60;;;16.94;42.24;98703.50;5257150;28;20279;-82
2021/03/31 08:05:10;;;;;;;12.68;10.75;;;15.30;90.30;;;17.02;42.08;98704.75;5258444;28;20283;-84
2021/03/31 08:08:13;;;;;;;12.02;10.35;;;15.70;90.00;;;17.38;41.13;98695.19;5268244;28;20302;-82
2021/03/31 08:10:49;;;;;;;10.75;9.68;;;16.10;88.50;;;17.68;40.96;98703.34;5249622;28;20254;-83
2021/03/31 08:13:29;;;;;;;12.60;10.40;;;16.50;87.30;;;17.95;40.18;98703.69;5248992;28;20744;-86
2021/03/31 08:16:23;;;;;;;14.60;10.30;;;16.70;86.90;;;18.21;39.90;98696.97;5256586;28;20200;-86
2021/03/31 08:19:02;;;;;;;11.98;10.55;;;16.90;85.40;;;18.51;38.96;98706.78;5256125;28;20228;-85
2021/03/31 08:21:35;;;;;;;12.77;10.90;;;17.30;84.50;;;18.75;38.50;98706.03;5257481;28;20287;-82
2021/03/31 08:24:09;;;;;;;13.43;11.00;;;17.60;83.50;;;19.11;37.77;98701.31;5265597;28;20196;-82
2021/03/31 08:26:43;;;;;;;15.15;10.48;;;18.00;81.80;;;19.24;37.45;98688.00;5253536;28;20220;-82
2021/03/31 08:29:54;;;;;;;12.93;11.35;;;17.90;81.90;;;19.45;37.03;98692.19;5268361;28;20701;-82
2021/03/31 08:32:28;;;;;;;13.07;10.43;;;18.10;81.80;;;19.75;36.45;98695.00;5256207;28;20220;-82
2021/03/31 08:35:20;;;;;;;12.82;10.85;;;18.50;80.40;;;19.93;35.78;98686.94;5260839;28;20198;-82
2021/03/31 08:37:53;;;;;;;14.20;11.68;;;18.60;79.10;;;19.95;36.23;98685.31;5255846;28;20247;-82
2021/03/31 08:40:30;;;;;;;14.25;11.70;;;18.70;79.80;;;20.18;35.62;98684.34;5258777;28;20634;-82
2021/03/31 08:43:10;;;;;;;15.10;11.40;;;18.80;78.70;;;20.20;35.44;98689.56;5270669;28;20188;-83
2021/03/31 08:45:42;;;;;;;12.70;11.32;;;19.00;78.00;;;20.38;34.80;98686.69;5268885;28;20666;-83
2021/03/31 08:48:37;;;;;;;15.25;11.65;;;19.20;76.40;;;20.64;34.09;98684.94;5267853;28;20254;-83
2021/03/31 08:51:29;;;;;;;11.70;10.50;;;19.60;75.10;;;20.72;34.43;98675.66;5268685;28;20215;-83
2021/03/31 08:54:03;;;;;;;13.63;11.80;;;19.60;76.40;;;20.82;33.93;98679.41;5266988;28;20196;-82
2021/03/31 08:56:35;;;;;;;14.65;12.30;;;19.70;75.50;;;20.93;33.34;98678.00;5246428;28;20200;-83
2021/03/31 08:59:08;;;;;;;14.15;12.15;;;19.80;74.50;;;21.00;33.58;98669.53;5262637;28;20196;-82
2021/03/31 09:01:42;;;;;;;12.73;10.85;;;19.90;74.40;;;21.14;34.75;98668.19;5255550;28;20283;-84
2021/03/31 09:04:20;;;;;;;13.27;11.85;;;20.00;76.00;;;21.19;34.53;98670.06;5259405;28;20224;-83
2021/03/31 09:06:53;;;;;;;16.90;12.10;;;20.20;76.30;;;21.30;34.26;98663.44;5264671;28;20235;-85
2021/03/31 09:09:33;;;;;;;14.90;12.00;;;20.30;75.50;;;21.48;33.92;98663.97;5255159;28;20196;-83
2021/03/31 09:12:21;;;;;;;12.02;10.57;;;20.60;74.50;;;21.56;34.30;98661.56;5248864;28;20201;-82
2021/03/31 09:14:55;;;;;;;14.10;11.00;;;20.60;75.30;;;21.79;34.26;98660.44;5258447;28;20191;-79
2021/03/31 09:17:30;;;;;;;14.25;11.40;;;20.70;74.80;;;21.93;33.13;98658.19;5267077;28;20242;-84
2021/03/31 09:20:07;;;;;;;13.82;11.38;;;21.10;73.20;;;21.94;33.77;98659.94;5266802;28;20215;-82
2021/03/31 09:22:39;;;;;;;13.52;11.23;;;21.00;74.50;;;21.99;33.28;98657.47;5267126;28;20291;-83
2021/03/31 09:25:15;;;;;;;15.88;10.88;;;21.00;73.70;;;22.02;34.11;98650.59;5266332;28;20646;-82
2021/03/31 09:28:15;;;;;;;13.13;10.52;;;21.00;75.00;;;22.07;34.64;98650.72;5267221;28;20612;-83
2021/03/31 09:30:51;;;;;;;12.07;10.50;;;21.00;75.90;;;22.17;34.84;98646.59;5266500;28;20200;-82
2021/03/31 09:33:32;;;;;;;12.95;10.90;;;21.30;76.30;;;22.26;35.52;98641.63;5265988;28;20192;-80
2021/03/31 09:36:17;;;;;;;12.77;11.43;;;21.50;76.40;;;22.36;34.81;98635.81;5263175;28;20203;-82
2021/03/31 09:38:56;;;;;;;11.88;10.30;;;21.40;75.50;;;22.51;33.73;98637.00;5257686;28;20215;-83
2021/03/31 09:41:32;;;;;;;12.82;10.38;;;21.60;74.10;;;22.59;34.84;98630.22;5254493;28;20220;-84
2021/03/31 09:44:05;;;;;;;13.40;10.73;;;21.70;75.70;;;22.70;34.11;98632.22;5255114;28;20286;-84
2021/03/31 09:46:37;;;;;;;12.15;10.73;;;21.70;75.20;;;22.70;34.28;98628.75;5264716;28;20669;-82
2021/03/31 09:49:11;;;;;;;13.27;10.73;;;21.70;75.00;;;22.76;33.61;98633.19;5253750;28;20224;-83
2021/03/31 09:51:44;;;;;;;11.68;10.45;;;21.90;73.90;;;22.75;35.26;98621.91;5254130;28;20294;-83
2021/03/31 09:54:17;;;;;;;11.48;10.10;;;21.90;76.90;;;22.85;35.28;98626.44;5268487;28;20290;-81
2021/03/31 09:56:49;;;;;;;12.65;10.15;;;22.00;76.20;;;22.90;35.25;98627.41;5261439;28;20570;-82
2021/03/31 09:59:21;;;;;;;11.48;9.73;;;22.00;76.40;;;23.00;35.15;98622.41;5267248;28;20575;-83
2021/03/31 10:01:54;;;;;;;10.27;9.23;;;22.10;77.00;;;23.02;35.35;98618.13;5251781;28;20601;-83
2021/03/31 10:04:27;;;;;;;11.93;10.15;;;22.10;76.70;;;23.16;34.74;98614.94;5254262;28;20280;-82
2021/03/31 10:07:21;;;;;;;11.82;9.50;;;22.10;76.30;;;23.22;34.63;98614.16;5260822;28;20211;-82
2021/03/31 10:10:09;;;;;;;11.05;9.45;;;22.50;75.20;;;23.32;33.83;98613.50;5265253;28;20228;-84
2021/03/31 10:12:42;;;;;;;11.50;9.82;;;22.50;73.70;;;23.49;32.20;98605.06;5251814;28;20639;-84
2021/03/31 10:15:14;;;;;;;12.18;10.13;;;22.70;70.90;;;23.52;31.90;98607.72;5256956;28;20592;-82
2021/03/31 10:17:46;;;;;;;10.48;9.40;;;22.80;71.10;;;23.61;32.80;98602.69;5266155;28;20415;-82
2021/03/31 10:20:20;;;;;;;12.55;9.98;;;22.80;72.20;;;23.58;32.76;98600.03;5255645;28;20217;-83
2021/03/31 10:22:54;;;;;;;11.85;9.73;;;22.80;72.20;;;23.60;32.41;98598.31;5253240;28;20197;-83
2021/03/31 10:25:43;;;;;;;11.05;9.85;;;22.80;70.30;;;23.64;31.53;98597.53;5258150;28;20196;-83
2021/03/31 10:28:36;;;;;;;11.77;10.57;;;22.80;69.20;;;23.64;30.69;98597.53;5268644;28;20623;-83
2021/03/31 10:31:29;;;;;;;12.10;9.52;;;22.70;68.50;;;23.55;31.64;98589.50;5269415;28;20192;-82
2021/03/31 10:34:19;;;;;;;11.00;9.68;;;22.70;70.00;;;23.62;32.46;98588.78;5256369;28;20211;-85
2021/03/31 10:36:58;;;;;;;10.10;9.10;;;22.80;70.30;;;23.78;29.99;98582.13;5268286;28;20218;-82
2021/03/31 10:40:05;;;;;;;10.57;9.38;;;23.00;66.20;;;23.80;29.32;98578.66;5258691;28;20292;-83
2021/03/31 10:49:10;;;;;;;9.95;8.30;;;22.90;65.40;;;23.76;29.13;98569.03;5255710;28;20215;-83
2021/03/31 10:51:50;;;;;;;9.45;8.52;;;23.00;64.40;;;23.86;28.91;98563.97;5260629;28;20227;-82
2021/03/31 10:54:25;;;;;;;10.43;9.25;;;23.10;63.10;;;24.02;25.50;98563.34;5245765;28;20200;-81
2021/03/31 10:57:06;;;;;;;9.48;8.48;;;23.10;58.40;;;23.83;26.28;98560.44;5262101;28;20749;-80
2021/03/31 10:59:39;;;;;;;9.95;8.23;;;23.10;58.90;;;23.83;25.97;98554.34;5263811;28;20291;-83
2021/03/31 11:02:12;;;;;;;8.60;7.63;;;23.00;58.30;;;23.91;25.02;98555.34;5259441;28;20199;-82
2021/03/31 11:04:44;;;;;;;10.50;7.72;;;23.10;56.80;;;24.02;24.86;98552.91;5266591;28;20295;-84
2021/03/31 11:07:17;;;;;;;10.48;7.82;;;23.10;57.50;;;23.97;24.61;98546.72;5265642;28;20281;-83